sensor_id;sensor_type;location;lat;lon;timestamp;pressure;altitude;pressure_sealevel;temperature;humidity
40596;BME280;26304;48.794;9.820;2023-02-14T00:03:14;98068.00;;;16.16;47.07
40596;BME280;26304;48.794;9.820;2023-02-14T00:08:57;98079.13;;;16.13;47.22
40596;BME280;26304;48.794;9.820;2023-02-14T00:14:40;98075.72;;;16.13;47.19
40596;BME280;26304;48.794;9.820;2023-02-14T00:20:40;98076.38;;;16.10;47.46
40596;BME280;26304;48.794;9.820;2023-02-14T00:26:23;98072.19;;;16.09;47.34
40596;BME280;26304;48.794;9.820;2023-02-14T00:32:07;98076.97;;;16.07;47.21
40596;BME280;26304;48.794;9.820;2023-02-14T00:37:49;98074.19;;;16.03;47.19
40596;BME280;26304;48.794;9.820;2023-02-14T00:43:31;98081.28;;;16.03;47.11
40596;BME280;26304;48.794;9.820;2023-02-14T00:49:15;98071.13;;;16.01;47.67
40596;BME280;26304;48.794;9.820;2023-02-14T00:54:58;98069.41;;;15.96;47.71
40596;BME280;26304;48.794;9.820;2023-02-14T01:00:40;98079.16;;;15.96;47.44
40596;BME280;26304;48.794;9.820;2023-02-14T01:06:24;98071.91;;;15.93;47.83
40596;BME280;26304;48.794;9.820;2023-02-14T01:12:07;98070.34;;;15.92;47.51
40596;BME280;26304;48.794;9.820;2023-02-14T01:17:50;98074.38;;;15.89;47.70
40596;BME280;26304;48.794;9.820;2023-02-14T01:23:33;98068.66;;;15.87;48.08
40596;BME280;26304;48.794;9.820;2023-02-14T01:29:16;98061.09;;;15.86;48.11
40596;BME280;26304;48.794;9.820;2023-02-14T01:34:59;98060.19;;;15.82;47.99
40596;BME280;26304;48.794;9.820;2023-02-14T01:40:43;98059.25;;;15.77;48.19
40596;BME280;26304;48.794;9.820;2023-02-14T01:46:28;98061.09;;;15.77;47.89
40596;BME280;26304;48.794;9.820;2023-02-14T01:52:13;98066.19;;;15.73;47.55
40596;BME280;26304;48.794;9.820;2023-02-14T01:58:03;98072.81;;;15.71;48.13
40596;BME280;26304;48.794;9.820;2023-02-14T02:03:49;98063.38;;;15.70;47.88
40596;BME280;26304;48.794;9.820;2023-02-14T02:09:34;98067.41;;;15.67;48.24
40596;BME280;26304;48.794;9.820;2023-02-14T02:15:21;98072.97;;;15.66;47.82
40596;BME280;26304;48.794;9.820;2023-02-14T02:21:37;98063.41;;;15.61;48.26
40596;BME280;26304;48.794;9.820;2023-02-14T02:27:46;98059.09;;;16.56;46.12
40596;BME280;26304;48.794;9.820;2023-02-14T02:40:02;98050.41;;;18.91;42.36
40596;BME280;26304;48.794;9.820;2023-02-14T02:45:53;98049.78;;;19.22;41.89
40596;BME280;26304;48.794;9.820;2023-02-14T02:51:56;98047.91;;;19.35;41.96
40596;BME280;26304;48.794;9.820;2023-02-14T02:57:59;98054.66;;;19.89;41.06
40596;BME280;26304;48.794;9.820;2023-02-14T03:03:45;98041.19;;;20.39;40.63
40596;BME280;26304;48.794;9.820;2023-02-14T03:09:53;98038.72;;;20.46;40.84
40596;BME280;26304;48.794;9.820;2023-02-14T03:21:56;98042.44;;;20.93;40.66
40596;BME280;26304;48.794;9.820;2023-02-14T03:27:45;98040.41;;;21.21;39.98
40596;BME280;26304;48.794;9.820;2023-02-14T03:33:38;98047.66;;;20.89;40.63
40596;BME280;26304;48.794;9.820;2023-02-14T03:39:27;98058.91;;;21.76;39.49
40596;BME280;26304;48.794;9.820;2023-02-14T03:45:19;98057.88;;;22.04;38.92
40596;BME280;26304;48.794;9.820;2023-02-14T03:51:06;98054.06;;;22.25;38.63
40596;BME280;26304;48.794;9.820;2023-02-14T03:56:52;98058.44;;;22.13;39.08
40596;BME280;26304;48.794;9.820;2023-02-14T04:02:39;98052.44;;;22.40;38.70
40596;BME280;26304;48.794;9.820;2023-02-14T04:08:27;98057.47;;;22.72;38.56
40596;BME280;26304;48.794;9.820;2023-02-14T04:14:10;98054.16;;;22.78;38.48
40596;BME280;26304;48.794;9.820;2023-02-14T04:19:53;98053.16;;;22.87;38.61
40596;BME280;26304;48.794;9.820;2023-02-14T04:25:37;98039.69;;;22.72;38.74
40596;BME280;26304;48.794;9.820;2023-02-14T04:31:23;98047.78;;;22.83;38.68
40596;BME280;26304;48.794;9.820;2023-02-14T04:37:06;98043.16;;;23.03;38.36
40596;BME280;26304;48.794;9.820;2023-02-14T04:42:50;98030.50;;;23.19;38.32
40596;BME280;26304;48.794;9.820;2023-02-14T04:48:32;98034.84;;;23.35;38.35
40596;BME280;26304;48.794;9.820;2023-02-14T04:54:15;98033.44;;;23.11;38.55
40596;BME280;26304;48.794;9.820;2023-02-14T04:59:59;98035.38;;;22.64;39.41
40596;BME280;26304;48.794;9.820;2023-02-14T05:05:41;98030.41;;;21.70;41.27
40596;BME280;26304;48.794;9.820;2023-02-14T05:11:25;98033.06;;;20.95;42.65
40596;BME280;26304;48.794;9.820;2023-02-14T05:17:09;98020.03;;;20.71;43.36
40596;BME280;26304;48.794;9.820;2023-02-14T05:22:51;98008.72;;;20.54;43.55
40596;BME280;26304;48.794;9.820;2023-02-14T05:28:34;98013.06;;;20.46;44.31
40596;BME280;26304;48.794;9.820;2023-02-14T05:34:18;98006.00;;;20.35;44.88
40596;BME280;26304;48.794;9.820;2023-02-14T05:40:01;98013.94;;;20.35;44.96
40596;BME280;26304;48.794;9.820;2023-02-14T05:45:43;98007.38;;;20.28;45.10
40596;BME280;26304;48.794;9.820;2023-02-14T05:51:27;98006.59;;;20.12;45.71
40596;BME280;26304;48.794;9.820;2023-02-14T05:57:09;98013.94;;;20.19;45.62
40596;BME280;26304;48.794;9.820;2023-02-14T06:02:52;98013.56;;;20.52;44.59
40596;BME280;26304;48.794;9.820;2023-02-14T06:08:36;98015.88;;;20.70;44.74
40596;BME280;26304;48.794;9.820;2023-02-14T06:14:18;98012.22;;;20.74;45.18
40596;BME280;26304;48.794;9.820;2023-02-14T06:20:01;98023.78;;;20.85;46.47
40596;BME280;26304;48.794;9.820;2023-02-14T06:25:44;98032.44;;;21.02;46.10
40596;BME280;26304;48.794;9.820;2023-02-14T06:31:27;98047.91;;;20.84;46.58
40596;BME280;26304;48.794;9.820;2023-02-14T06:37:09;98043.66;;;20.63;46.64
40596;BME280;26304;48.794;9.820;2023-02-14T06:42:53;98040.50;;;20.58;46.90
40596;BME280;26304;48.794;9.820;2023-02-14T06:48:36;98041.78;;;20.48;46.55
40596;BME280;26304;48.794;9.820;2023-02-14T06:54:18;98036.56;;;20.36;47.06
40596;BME280;26304;48.794;9.820;2023-02-14T07:00:03;98045.84;;;20.29;46.89
40596;BME280;26304;48.794;9.820;2023-02-14T07:05:46;98043.72;;;20.19;46.86
40596;BME280;26304;48.794;9.820;2023-02-14T07:11:29;98035.44;;;20.05;47.08
40596;BME280;26304;48.794;9.820;2023-02-14T07:17:13;98041.66;;;19.96;47.23
40596;BME280;26304;48.794;9.820;2023-02-14T07:22:56;98033.38;;;19.82;47.73
40596;BME280;26304;48.794;9.820;2023-02-14T07:28:38;98035.78;;;19.75;47.73
40596;BME280;26304;48.794;9.820;2023-02-14T07:34:22;98035.72;;;19.59;48.10
40596;BME280;26304;48.794;9.820;2023-02-14T07:40:06;98036.31;;;19.52;47.37
40596;BME280;26304;48.794;9.820;2023-02-14T07:45:49;98028.88;;;19.42;47.65
40596;BME280;26304;48.794;9.820;2023-02-14T07:51:33;98036.34;;;19.40;47.23
40596;BME280;26304;48.794;9.820;2023-02-14T07:57:15;98030.72;;;19.41;47.20
40596;BME280;26304;48.794;9.820;2023-02-14T08:02:58;98038.03;;;19.32;47.65
40596;BME280;26304;48.794;9.820;2023-02-14T08:08:42;98027.09;;;19.18;47.51
40596;BME280;26304;48.794;9.820;2023-02-14T08:14:24;98035.59;;;19.27;47.44
40596;BME280;26304;48.794;9.820;2023-02-14T08:20:07;98038.97;;;19.40;46.45
40596;BME280;26304;48.794;9.820;2023-02-14T08:25:53;98026.13;;;19.38;46.38
40596;BME280;26304;48.794;9.820;2023-02-14T08:31:35;98028.25;;;19.33;46.57
40596;BME280;26304;48.794;9.820;2023-02-14T08:37:18;98023.63;;;19.30;46.35
40596;BME280;26304;48.794;9.820;2023-02-14T08:43:02;98019.69;;;19.23;46.93
40596;BME280;26304;48.794;9.820;2023-02-14T08:48:44;98011.59;;;19.16;46.76
40596;BME280;26304;48.794;9.820;2023-02-14T08:54:27;98012.03;;;19.18;46.79
40596;BME280;26304;48.794;9.820;2023-02-14T09:00:12;98011.81;;;19.11;46.71
40596;BME280;26304;48.794;9.820;2023-02-14T09:05:54;98011.03;;;19.11;46.67
40596;BME280;26304;48.794;9.820;2023-02-14T09:11:37;98013.38;;;19.00;47.28
40596;BME280;26304;48.794;9.820;2023-02-14T09:17:21;98001.97;;;18.96;47.49
40596;BME280;26304;48.794;9.820;2023-02-14T09:23:03;98006.69;;;19.02;47.65
40596;BME280;26304;48.794;9.820;2023-02-14T09:28:46;98004.03;;;19.02;47.84
40596;BME280;26304;48.794;9.820;2023-02-14T09:34:32;97997.53;;;19.12;47.22
40596;BME280;26304;48.794;9.820;2023-02-14T09:40:32;97999.50;;;19.15;47.63
40596;BME280;26304;48.794;9.820;2023-02-14T09:46:16;97991.13;;;19.26;47.88
40596;BME280;26304;48.794;9.820;2023-02-14T09:52:03;97994.09;;;19.24;47.36
40596;BME280;26304;48.794;9.820;2023-02-14T09:57:57;97990.59;;;19.20;47.85
40596;BME280;26304;48.794;9.820;2023-02-14T10:04:06;97994.00;;;19.20;47.60
40596;BME280;26304;48.794;9.820;2023-02-14T10:10:02;97981.22;;;19.22;47.23
40596;BME280;26304;48.794;9.820;2023-02-14T10:15:57;97985.41;;;19.23;47.11
40596;BME280;26304;48.794;9.820;2023-02-14T10:21:42;97977.59;;;19.27;47.20
40596;BME280;26304;48.794;9.820;2023-02-14T10:27:32;97974.41;;;19.34;47.74
40596;BME280;26304;48.794;9.820;2023-02-14T10:33:17;97980.97;;;19.40;47.89
40596;BME280;26304;48.794;9.820;2023-02-14T10:39:10;97976.22;;;19.46;47.64
40596;BME280;26304;48.794;9.820;2023-02-14T10:45:07;97971.56;;;19.55;48.96
40596;BME280;26304;48.794;9.820;2023-02-14T10:50:55;97969.31;;;19.69;48.54
40596;BME280;26304;48.794;9.820;2023-02-14T10:56:42;97957.03;;;19.61;48.33
40596;BME280;26304;48.794;9.820;2023-02-14T11:02:31;97949.25;;;19.81;48.06
40596;BME280;26304;48.794;9.820;2023-02-14T11:08:23;97944.94;;;19.60;47.08
40596;BME280;26304;48.794;9.820;2023-02-14T11:14:22;97940.19;;;19.66;46.84
40596;BME280;26304;48.794;9.820;2023-02-14T11:20:22;97927.13;;;19.85;46.77
40596;BME280;26304;48.794;9.820;2023-02-14T11:26:13;97922.00;;;19.92;46.81
40596;BME280;26304;48.794;9.820;2023-02-14T11:32:06;97912.47;;;19.88;47.27
40596;BME280;26304;48.794;9.820;2023-02-14T11:37:53;97906.47;;;19.75;45.66
40596;BME280;26304;48.794;9.820;2023-02-14T11:43:38;97905.22;;;19.85;45.18
40596;BME280;26304;48.794;9.820;2023-02-14T11:49:31;97891.81;;;19.90;45.22
40596;BME280;26304;48.794;9.820;2023-02-14T11:55:24;97891.19;;;19.96;45.55
40596;BME280;26304;48.794;9.820;2023-02-14T12:01:11;97881.75;;;19.95;45.96
40596;BME280;26304;48.794;9.820;2023-02-14T12:07:12;97887.19;;;20.03;46.31
40596;BME280;26304;48.794;9.820;2023-02-14T12:13:00;97864.19;;;20.03;46.17
40596;BME280;26304;48.794;9.820;2023-02-14T12:18:51;97865.41;;;20.06;46.62
40596;BME280;26304;48.794;9.820;2023-02-14T12:24:37;97861.28;;;20.08;47.04
40596;BME280;26304;48.794;9.820;2023-02-14T12:30:28;97858.47;;;20.17;47.07
40596;BME280;26304;48.794;9.820;2023-02-14T12:36:18;97848.84;;;20.25;46.98
40596;BME280;26304;48.794;9.820;2023-02-14T12:42:17;97844.59;;;20.20;46.82
40596;BME280;26304;48.794;9.820;2023-02-14T12:48:13;97835.28;;;20.26;46.72
40596;BME280;26304;48.794;9.820;2023-02-14T12:54:10;97828.16;;;20.46;47.15
40596;BME280;26304;48.794;9.820;2023-02-14T13:00:12;97818.19;;;20.40;47.49
40596;BME280;26304;48.794;9.820;2023-02-14T13:06:01;97803.13;;;20.40;47.67
40596;BME280;26304;48.794;9.820;2023-02-14T13:11:54;97798.19;;;20.58;47.96
40596;BME280;26304;48.794;9.820;2023-02-14T13:17:43;97792.53;;;20.60;47.54
40596;BME280;26304;48.794;9.820;2023-02-14T13:23:33;97783.03;;;20.55;47.56
40596;BME280;26304;48.794;9.820;2023-02-14T13:29:18;97781.63;;;20.61;47.18
40596;BME280;26304;48.794;9.820;2023-02-14T13:35:04;97780.22;;;20.64;46.94
40596;BME280;26304;48.794;9.820;2023-02-14T13:40:50;97776.34;;;20.61;46.67
40596;BME280;26304;48.794;9.820;2023-02-14T13:46:48;97768.94;;;20.67;46.63
40596;BME280;26304;48.794;9.820;2023-02-14T13:52:41;97770.81;;;20.66;46.60
40596;BME280;26304;48.794;9.820;2023-02-14T13:58:26;97763.72;;;20.71;46.41
40596;BME280;26304;48.794;9.820;2023-02-14T14:04:33;97774.56;;;20.65;46.28
40596;BME280;26304;48.794;9.820;2023-02-14T14:10:41;97763.56;;;20.63;46.46
40596;BME280;26304;48.794;9.820;2023-02-14T14:16:29;97765.94;;;20.68;46.12
40596;BME280;26304;48.794;9.820;2023-02-14T14:22:13;97766.00;;;20.72;46.52
40596;BME280;26304;48.794;9.820;2023-02-14T14:27:56;97760.72;;;20.72;46.41
40596;BME280;26304;48.794;9.820;2023-02-14T14:33:41;97755.03;;;20.70;46.21
40596;BME280;26304;48.794;9.820;2023-02-14T14:39:26;97755.44;;;20.53;46.67
40596;BME280;26304;48.794;9.820;2023-02-14T14:45:20;97751.97;;;19.58;45.82
40596;BME280;26304;48.794;9.820;2023-02-14T14:51:05;97751.41;;;19.84;45.20
40596;BME280;26304;48.794;9.820;2023-02-14T14:56:51;97747.25;;;19.51;44.40
40596;BME280;26304;48.794;9.820;2023-02-14T15:02:36;97739.53;;;19.42;43.99
40596;BME280;26304;48.794;9.820;2023-02-14T15:08:27;97739.47;;;19.39;43.81
40596;BME280;26304;48.794;9.820;2023-02-14T15:14:15;97735.38;;;19.26;42.74
40596;BME280;26304;48.794;9.820;2023-02-14T15:20:00;97739.47;;;19.07;43.26
40596;BME280;26304;48.794;9.820;2023-02-14T15:25:47;97749.41;;;18.98;44.03
40596;BME280;26304;48.794;9.820;2023-02-14T15:31:32;97741.31;;;18.91;43.70
40596;BME280;26304;48.794;9.820;2023-02-14T15:37:15;97742.78;;;18.76;43.83
40596;BME280;26304;48.794;9.820;2023-02-14T15:43:13;97746.81;;;18.85;44.54
40596;BME280;26304;48.794;9.820;2023-02-14T15:48:57;97746.44;;;18.71;43.45
40596;BME280;26304;48.794;9.820;2023-02-14T15:54:42;97743.28;;;18.65;44.05
40596;BME280;26304;48.794;9.820;2023-02-14T16:00:27;97744.63;;;18.59;44.53
40596;BME280;26304;48.794;9.820;2023-02-14T16:06:15;97744.00;;;18.50;44.40
40596;BME280;26304;48.794;9.820;2023-02-14T16:12:28;97740.44;;;18.30;44.65
40596;BME280;26304;48.794;9.820;2023-02-14T16:18:32;97737.16;;;18.33;44.13
40596;BME280;26304;48.794;9.820;2023-02-14T16:24:16;97742.47;;;18.21;44.37
40596;BME280;26304;48.794;9.820;2023-02-14T16:29:58;97732.63;;;18.05;44.59
40596;BME280;26304;48.794;9.820;2023-02-14T16:35:43;97730.34;;;18.04;44.43
40596;BME280;26304;48.794;9.820;2023-02-14T16:41:27;97740.31;;;17.86;44.46
40596;BME280;26304;48.794;9.820;2023-02-14T16:47:12;97746.00;;;17.75;44.74
40596;BME280;26304;48.794;9.820;2023-02-14T16:52:56;97747.31;;;17.69;44.84
40596;BME280;26304;48.794;9.820;2023-02-14T16:58:39;97746.03;;;17.51;44.31
40596;BME280;26304;48.794;9.820;2023-02-14T17:04:22;97748.00;;;17.41;44.82
40596;BME280;26304;48.794;9.820;2023-02-14T17:10:10;97746.19;;;18.20;45.54
40596;BME280;26304;48.794;9.820;2023-02-14T17:15:55;97744.88;;;18.26;44.16
40596;BME280;26304;48.794;9.820;2023-02-14T17:21:38;97750.38;;;18.21;44.15
40596;BME280;26304;48.794;9.820;2023-02-14T17:27:22;97758.22;;;18.33;44.56
40596;BME280;26304;48.794;9.820;2023-02-14T17:33:05;97762.13;;;18.39;44.33
40596;BME280;26304;48.794;9.820;2023-02-14T17:38:48;97760.06;;;18.45;43.99
40596;BME280;26304;48.794;9.820;2023-02-14T17:44:34;97769.13;;;18.47;44.67
40596;BME280;26304;48.794;9.820;2023-02-14T17:50:17;97766.06;;;18.45;45.57
40596;BME280;26304;48.794;9.820;2023-02-14T17:56:03;97776.03;;;18.52;46.14
40596;BME280;26304;48.794;9.820;2023-02-14T18:01:47;97779.66;;;18.47;46.46
40596;BME280;26304;48.794;9.820;2023-02-14T18:07:30;97779.66;;;18.47;45.79
40596;BME280;26304;48.794;9.820;2023-02-14T18:13:12;97774.41;;;18.47;45.63
40596;BME280;26304;48.794;9.820;2023-02-14T18:18:56;97770.00;;;18.51;45.51
40596;BME280;26304;48.794;9.820;2023-02-14T18:24:38;97772.97;;;18.50;46.23
40596;BME280;26304;48.794;9.820;2023-02-14T18:30:21;97763.97;;;18.51;45.63
40596;BME280;26304;48.794;9.820;2023-02-14T18:36:09;97768.00;;;18.61;46.11
40596;BME280;26304;48.794;9.820;2023-02-14T18:41:54;97765.47;;;18.64;46.38
40596;BME280;26304;48.794;9.820;2023-02-14T18:47:40;97759.44;;;18.64;46.96
40596;BME280;26304;48.794;9.820;2023-02-14T18:53:24;97751.91;;;18.50;46.50
40596;BME280;26304;48.794;9.820;2023-02-14T18:59:08;97753.06;;;18.37;46.31
40596;BME280;26304;48.794;9.820;2023-02-14T19:04:51;97743.47;;;18.44;46.55
40596;BME280;26304;48.794;9.820;2023-02-14T19:10:37;97741.03;;;18.51;46.88
40596;BME280;26304;48.794;9.820;2023-02-14T19:16:23;97736.47;;;18.64;48.42
40596;BME280;26304;48.794;9.820;2023-02-14T19:22:06;97736.91;;;18.66;49.33
40596;BME280;26304;48.794;9.820;2023-02-14T19:27:50;97731.88;;;18.61;49.40
40596;BME280;26304;48.794;9.820;2023-02-14T19:33:36;97736.06;;;18.62;50.40
40596;BME280;26304;48.794;9.820;2023-02-14T19:39:19;97729.78;;;18.67;50.22
40596;BME280;26304;48.794;9.820;2023-02-14T19:45:04;97725.06;;;18.60;50.31
40596;BME280;26304;48.794;9.820;2023-02-14T19:50:47;97718.47;;;18.66;49.75
40596;BME280;26304;48.794;9.820;2023-02-14T19:56:32;97719.25;;;18.67;49.92
40596;BME280;26304;48.794;9.820;2023-02-14T20:02:17;97709.63;;;18.75;49.95
40596;BME280;26304;48.794;9.820;2023-02-14T20:07:59;97706.50;;;18.69;50.13
40596;BME280;26304;48.794;9.820;2023-02-14T20:13:42;97698.91;;;17.95;45.82
40596;BME280;26304;48.794;9.820;2023-02-14T20:19:27;97696.38;;;17.74;43.98
40596;BME280;26304;48.794;9.820;2023-02-14T20:25:12;97699.56;;;17.55;42.86
40596;BME280;26304;48.794;9.820;2023-02-14T20:30:54;97696.84;;;17.51;42.53
40596;BME280;26304;48.794;9.820;2023-02-14T20:36:38;97691.47;;;17.48;42.25
40596;BME280;26304;48.794;9.820;2023-02-14T20:42:21;97676.91;;;17.25;42.07
40596;BME280;26304;48.794;9.820;2023-02-14T20:48:04;97679.78;;;17.20;42.30
40596;BME280;26304;48.794;9.820;2023-02-14T20:53:49;97670.22;;;17.03;41.08
40596;BME280;26304;48.794;9.820;2023-02-14T20:59:32;97662.03;;;17.17;41.30
40596;BME280;26304;48.794;9.820;2023-02-14T21:05:15;97666.94;;;16.94;40.71
40596;BME280;26304;48.794;9.820;2023-02-14T21:10:59;97662.09;;;16.84;41.21
40596;BME280;26304;48.794;9.820;2023-02-14T21:16:42;97657.72;;;16.88;41.01
40596;BME280;26304;48.794;9.820;2023-02-14T21:22:25;97651.09;;;16.57;40.76
40596;BME280;26304;48.794;9.820;2023-02-14T21:28:08;97640.13;;;16.43;41.44
40596;BME280;26304;48.794;9.820;2023-02-14T21:33:52;97632.97;;;16.77;41.16
40596;BME280;26304;48.794;9.820;2023-02-14T21:39:35;97628.66;;;16.93;41.61
40596;BME280;26304;48.794;9.820;2023-02-14T21:45:19;97618.25;;;16.97;41.82
40596;BME280;26304;48.794;9.820;2023-02-14T21:51:19;97618.56;;;16.95;41.89
40596;BME280;26304;48.794;9.820;2023-02-14T21:57:02;97611.44;;;16.96;42.33
40596;BME280;26304;48.794;9.820;2023-02-14T22:02:46;97596.25;;;16.89;42.71
40596;BME280;26304;48.794;9.820;2023-02-14T22:08:29;97606.00;;;16.88;43.18
40596;BME280;26304;48.794;9.820;2023-02-14T22:14:11;97596.56;;;16.87;43.15
40596;BME280;26304;48.794;9.820;2023-02-14T22:19:55;97595.06;;;16.86;43.52
40596;BME280;26304;48.794;9.820;2023-02-14T22:25:37;97591.19;;;16.84;43.70
40596;BME280;26304;48.794;9.820;2023-02-14T22:31:20;97591.19;;;16.84;44.34
40596;BME280;26304;48.794;9.820;2023-02-14T22:37:04;97579.78;;;16.80;43.93
40596;BME280;26304;48.794;9.820;2023-02-14T22:42:46;97589.88;;;16.78;44.31
40596;BME280;26304;48.794;9.820;2023-02-14T22:48:29;97587.47;;;16.73;44.44
40596;BME280;26304;48.794;9.820;2023-02-14T22:54:14;97586.91;;;16.67;44.97
40596;BME280;26304;48.794;9.820;2023-02-14T22:59:57;97588.66;;;16.63;44.68
40596;BME280;26304;48.794;9.820;2023-02-14T23:05:39;97588.09;;;16.57;44.91
40596;BME280;26304;48.794;9.820;2023-02-14T23:11:26;97586.00;;;16.50;45.60
40596;BME280;26304;48.794;9.820;2023-02-14T23:17:12;97574.63;;;16.46;45.71
40596;BME280;26304;48.794;9.820;2023-02-14T23:23:13;97567.84;;;16.45;45.21
40596;BME280;26304;48.794;9.820;2023-02-14T23:28:57;97565.09;;;16.42;45.79
40596;BME280;26304;48.794;9.820;2023-02-14T23:34:40;97574.41;;;16.39;46.23
40596;BME280;26304;48.794;9.820;2023-02-14T23:40:23;97572.09;;;16.38;45.49
40596;BME280;26304;48.794;9.820;2023-02-14T23:46:07;97567.50;;;16.34;45.62
40596;BME280;26304;48.794;9.820;2023-02-14T23:51:51;97560.72;;;16.33;45.54
40596;BME280;26304;48.794;9.820;2023-02-14T23:57:34;97556.09;;;16.30;45.76
